Parry Sound, Canada
Current Conditions -  °F | °C
As of 3:34 AM on Monday 24 Nov 2014 (Local Time) from CYQA Reporting Station
Moderate Rain Moderate Rain  
Wind Chill: 34°   Ceiling: 800
Heat Index: 41°   Visibility: 2.5mi
Dew Point: 41°   Wind: 12mph
Humidity: 100%   Direction: 120°ESE
Pressure: 29.29"   Gusts: 20mph
Location:  45.34°N, 80.04°W
Report Text: CYQA 240834Z AUTO 12010G17KT 070V150 2 1/2SM RA BR BKN008 OVC014 05/05 A2929 RMK PRESFR PCPN 3.8MM PAST HR SLP926
Loading
Personal Weather Stations






























Interactive Weather Map New forecast layout! Learn more

10-Day Weather Forecast

Advertisements
Track Severe Weather on mobile